createdAt,value
2022-11-07T00:03:20.690Z,69.40
2022-11-07T00:08:32.042Z,50.45
2022-11-07T00:13:34.206Z,59.45
2022-11-07T00:18:36.536Z,58.70
2022-11-07T00:23:41.431Z,57.03
2022-11-07T00:28:43.997Z,55.85
2022-11-07T00:33:46.116Z,56.42
2022-11-07T00:38:48.316Z,55.13
2022-11-07T00:43:50.181Z,54.13
2022-11-07T00:48:52.551Z,55.17
2022-11-07T00:53:54.916Z,58.53
2022-11-07T00:58:58.553Z,54.20
2022-11-07T01:04:18.953Z,65.57
2022-11-07T01:09:22.101Z,50.40
2022-11-07T01:14:24.171Z,58.08
2022-11-07T01:19:26.075Z,59.05
2022-11-07T01:24:28.175Z,58.33
2022-11-07T01:29:30.178Z,66.00
2022-11-07T01:34:32.226Z,64.07
2022-11-07T01:39:34.132Z,58.65
2022-11-07T01:44:42.313Z,61.35
2022-11-07T01:49:44.597Z,54.33
2022-11-07T01:55:09.746Z,59.83
2022-11-07T02:00:15.281Z,51.47
2022-11-07T02:05:32.688Z,53.95
2022-11-07T02:10:35.125Z,49.15
2022-11-07T02:15:37.225Z,52.50
2022-11-07T02:20:39.264Z,53.65
2022-11-07T02:25:41.420Z,54.25
2022-11-07T02:30:43.450Z,55.72
2022-11-07T02:35:47.638Z,57.90
2022-11-07T02:40:58.612Z,62.47
2022-11-07T02:46:03.943Z,71.68
2022-11-07T02:51:06.422Z,49.85
2022-11-07T02:56:09.363Z,55.55
2022-11-07T03:01:12.487Z,53.72
2022-11-07T03:06:17.124Z,53.10
2022-11-07T03:11:22.332Z,54.40
2022-11-07T03:16:24.230Z,59.50
2022-11-07T03:21:26.095Z,65.97
2022-11-07T03:26:28.027Z,61.53
2022-11-07T03:31:29.915Z,57.67
2022-11-07T03:36:31.991Z,60.45
2022-11-07T03:41:33.854Z,51.63
2022-11-07T03:46:35.719Z,56.72
2022-11-07T03:51:37.839Z,57.30
2022-11-07T03:56:39.945Z,58.85
2022-11-07T04:01:42.011Z,63.63
2022-11-07T04:06:44.284Z,50.33
2022-11-07T04:12:04.721Z,62.22
2022-11-07T04:17:20.304Z,54.22
2022-11-07T04:22:26.528Z,71.50
2022-11-07T04:27:43.371Z,73.60
2022-11-07T04:32:56.590Z,66.82
2022-11-07T04:37:59.683Z,65.65
2022-11-07T04:43:03.379Z,66.82
2022-11-07T04:53:07.701Z,90.68
2022-11-07T04:58:10.388Z,87.43
2022-11-07T05:03:12.869Z,83.82
2022-11-07T05:08:15.106Z,78.82
2022-11-07T05:13:18.523Z,87.50
2022-11-07T05:18:21.248Z,86.95
2022-11-07T05:23:23.155Z,81.75
2022-11-07T05:28:38.372Z,76.80
2022-11-07T05:33:41.699Z,71.75
2022-11-07T05:38:45.899Z,83.55
2022-11-07T05:43:48.204Z,76.68
2022-11-07T05:48:53.462Z,74.07
2022-11-07T05:53:57.591Z,74.03
2022-11-07T05:58:59.597Z,74.93
2022-11-07T06:04:04.137Z,88.57
2022-11-07T06:09:06.271Z,66.07
2022-11-07T06:14:08.407Z,71.97
2022-11-07T06:19:10.248Z,73.70
2022-11-07T06:24:15.236Z,64.72
2022-11-07T06:29:17.654Z,74.13
2022-11-07T06:34:19.667Z,69.03
2022-11-07T06:39:22.148Z,61.38
2022-11-07T06:44:24.052Z,57.40
2022-11-07T06:49:25.911Z,60.53
2022-11-07T06:54:27.998Z,61.40
2022-11-07T06:59:29.849Z,65.32
2022-11-07T07:04:31.874Z,57.67
2022-11-07T07:09:33.779Z,61.22
2022-11-07T07:14:36.011Z,57.08
2022-11-07T07:19:37.905Z,58.13
2022-11-07T07:24:39.996Z,47.80
2022-11-07T07:29:41.848Z,49.47
2022-11-07T07:53:09.011Z,48.45
2022-11-07T07:58:12.193Z,48.28
2022-11-07T08:03:14.541Z,39.92
2022-11-07T08:08:16.900Z,45.17
2022-11-07T08:13:19.159Z,39.03
2022-11-07T08:18:22.592Z,48.97
2022-11-07T08:23:24.868Z,34.47
2022-11-07T08:28:29.954Z,36.13
2022-11-07T08:33:32.632Z,36.47
2022-11-07T08:38:35.882Z,64.07
2022-11-07T08:43:37.804Z,36.83
2022-11-07T08:48:40.538Z,34.55
2022-11-07T08:53:48.677Z,35.10
2022-11-07T08:58:55.875Z,39.93
2022-11-07T09:03:58.712Z,38.38
2022-11-07T09:09:01.603Z,33.35
2022-11-07T09:14:03.664Z,36.55
2022-11-07T09:19:05.765Z,34.05
2022-11-07T09:24:08.361Z,32.63
2022-11-07T09:29:10.450Z,40.53
2022-11-07T09:34:12.660Z,35.33
2022-11-07T09:39:14.738Z,34.40
2022-11-07T09:44:55.087Z,30.55
2022-11-07T09:50:01.587Z,29.55
2022-11-07T09:55:27.881Z,26.30
2022-11-07T10:00:31.908Z,29.20
2022-11-07T10:06:01.585Z,28.35
2022-11-07T10:11:12.891Z,23.48
2022-11-07T10:16:24.437Z,25.27
2022-11-07T10:21:43.715Z,22.85
2022-11-07T10:26:45.826Z,29.75
2022-11-07T10:31:57.055Z,37.78
2022-11-07T10:36:59.055Z,36.08
2022-11-07T10:42:08.656Z,21.58
2022-11-07T10:47:24.621Z,24.90
2022-11-07T10:52:28.533Z,24.30
2022-11-07T10:57:30.609Z,22.52
2022-11-07T11:02:48.376Z,26.33
2022-11-07T11:07:50.644Z,21.63
2022-11-07T11:12:52.684Z,23.02
2022-11-07T11:18:05.618Z,22.05
2022-11-07T11:23:19.255Z,18.90
2022-11-07T11:33:44.809Z,18.42
2022-11-07T11:39:00.576Z,23.25
2022-11-07T11:44:26.596Z,23.10
2022-11-07T11:49:30.858Z,22.20
2022-11-07T11:54:34.436Z,22.60
2022-11-07T12:05:06.504Z,17.98
2022-11-07T12:10:13.291Z,18.50
2022-11-07T12:15:41.675Z,18.88
2022-11-07T12:21:01.939Z,18.60
2022-11-07T12:26:11.948Z,19.02
2022-11-07T12:31:40.150Z,19.90
2022-11-07T12:37:16.483Z,16.25
2022-11-07T12:42:39.503Z,17.00
2022-11-07T12:47:47.283Z,15.70
2022-11-07T12:53:20.549Z,15.38
2022-11-07T12:58:25.713Z,14.07
2022-11-07T13:04:10.611Z,15.40
2022-11-07T13:09:19.887Z,18.05
2022-11-07T13:14:37.109Z,14.73
2022-11-07T13:25:17.394Z,14.95
2022-11-07T13:30:22.281Z,13.07
2022-11-07T13:35:54.070Z,12.20
2022-11-07T13:41:07.589Z,15.65
2022-11-07T13:46:18.089Z,15.15
2022-11-07T13:51:33.380Z,16.05
2022-11-07T13:56:38.709Z,13.95
2022-11-07T14:01:45.388Z,12.95
2022-11-07T14:06:49.354Z,14.32
2022-11-07T14:11:53.440Z,12.52
2022-11-07T14:17:00.664Z,16.15
2022-11-07T14:22:02.711Z,15.85
2022-11-07T14:27:13.741Z,13.07
2022-11-07T14:32:16.889Z,15.27
2022-11-07T14:37:24.843Z,12.13
2022-11-07T14:42:27.006Z,12.80
2022-11-07T14:47:32.403Z,19.23
2022-11-07T14:52:49.727Z,35.47
2022-11-07T14:57:52.492Z,28.60
2022-11-07T15:02:57.107Z,76.65
2022-11-07T15:07:59.948Z,86.32
2022-11-07T15:13:05.428Z,84.20
2022-11-07T15:18:07.707Z,26.90
2022-11-07T15:23:12.560Z,16.63
2022-11-07T15:28:17.778Z,15.20
2022-11-07T15:33:22.612Z,15.80
2022-11-07T15:38:27.129Z,14.55
2022-11-07T15:43:29.225Z,18.90
2022-11-07T15:48:40.904Z,34.50
2022-11-07T15:53:43.589Z,19.58
2022-11-07T15:58:45.711Z,18.90
2022-11-07T16:03:47.760Z,22.00
2022-11-07T16:08:49.810Z,30.67
2022-11-07T16:13:59.220Z,22.80
2022-11-07T16:19:16.136Z,59.15
2022-11-07T16:24:18.239Z,34.17
2022-11-07T16:29:20.180Z,26.10
2022-11-07T16:34:22.027Z,32.60
2022-11-07T16:39:23.935Z,34.38
2022-11-07T16:44:26.624Z,29.63
2022-11-07T16:49:32.024Z,123.27
2022-11-07T16:54:34.110Z,52.75
2022-11-07T16:59:36.199Z,62.30
2022-11-07T17:04:38.135Z,26.48
2022-11-07T17:09:41.534Z,31.20
2022-11-07T17:14:44.897Z,32.53
2022-11-07T17:19:46.856Z,36.67
2022-11-07T17:24:49.054Z,167.90
2022-11-07T17:29:52.548Z,97.22
2022-11-07T17:35:18.198Z,100.90
2022-11-07T17:40:27.231Z,203.80
2022-11-07T17:45:29.209Z,144.48
2022-11-07T17:50:31.439Z,40.88
2022-11-07T17:55:33.443Z,91.70
2022-11-07T18:00:35.997Z,77.72
2022-11-07T18:05:37.915Z,42.42
2022-11-07T18:10:39.811Z,42.15
2022-11-07T18:15:43.472Z,42.63
2022-11-07T18:20:52.058Z,39.20
2022-11-07T18:26:16.708Z,50.72
2022-11-07T18:31:21.154Z,47.83
2022-11-07T18:36:23.217Z,44.13
2022-11-07T18:41:25.227Z,34.28
2022-11-07T18:46:27.228Z,27.75
2022-11-07T18:56:46.784Z,30.58
2022-11-07T19:01:48.801Z,25.70
2022-11-07T19:06:59.730Z,27.20
2022-11-07T19:12:01.785Z,34.88
2022-11-07T19:17:04.896Z,44.28
2022-11-07T19:22:06.789Z,47.20
2022-11-07T19:27:08.693Z,31.42
2022-11-07T19:32:11.027Z,43.60
2022-11-07T19:37:12.920Z,39.28
2022-11-07T19:42:17.728Z,36.03
2022-11-07T19:47:26.531Z,35.95
2022-11-07T19:52:33.520Z,31.13
2022-11-07T19:57:35.611Z,37.05
2022-11-07T20:02:43.951Z,63.65
2022-11-07T20:07:47.999Z,53.53
2022-11-07T20:12:54.220Z,39.75
2022-11-07T20:17:56.372Z,22.27
2022-11-07T20:23:00.256Z,26.48
2022-11-07T20:28:02.233Z,23.40
2022-11-07T20:33:04.288Z,31.10
2022-11-07T20:38:06.443Z,35.53
2022-11-07T20:43:08.760Z,38.80
2022-11-07T20:48:10.715Z,29.92
2022-11-07T20:53:12.780Z,27.00
2022-11-07T20:58:14.957Z,30.45
2022-11-07T21:03:17.128Z,31.38
2022-11-07T21:08:19.247Z,28.52
2022-11-07T21:13:22.012Z,28.38
2022-11-07T21:18:24.720Z,40.63
2022-11-07T21:23:27.091Z,48.08
2022-11-07T21:28:29.129Z,54.50
2022-11-07T21:33:31.714Z,39.15
2022-11-07T21:38:33.657Z,35.00
2022-11-07T21:43:36.328Z,28.45
2022-11-07T21:48:39.279Z,25.08
2022-11-07T21:53:41.873Z,29.13
2022-11-07T21:58:44.851Z,36.75
2022-11-07T22:09:10.621Z,40.00
2022-11-07T22:14:17.900Z,39.15
2022-11-07T22:19:20.001Z,32.78
2022-11-07T22:24:23.807Z,31.63
2022-11-07T22:29:25.805Z,25.17
2022-11-07T22:34:27.812Z,24.20
2022-11-07T22:39:29.723Z,29.10
2022-11-07T22:44:31.766Z,25.08
2022-11-07T22:49:33.844Z,23.55
2022-11-07T22:54:35.784Z,24.98
2022-11-07T22:59:37.625Z,24.70
2022-11-07T23:04:39.764Z,24.23
2022-11-07T23:09:41.711Z,28.20
2022-11-07T23:14:46.616Z,40.22
2022-11-07T23:19:53.332Z,25.80
2022-11-07T23:24:55.488Z,26.42
2022-11-07T23:29:57.598Z,20.77
2022-11-07T23:34:59.463Z,22.85
2022-11-07T23:40:01.340Z,22.38
2022-11-07T23:45:21.856Z,21.50
2022-11-07T23:50:42.241Z,22.70
2022-11-07T23:55:44.121Z,25.25
